createdAt,value
2023-05-01T00:00:49.228Z,100679.40
2023-05-01T00:03:36.979Z,100679.79
2023-05-01T00:06:17.906Z,100677.57
2023-05-01T00:09:07.394Z,100683.44
2023-05-01T00:11:54.831Z,100684.68
2023-05-01T00:14:40.355Z,100679.52
2023-05-01T00:17:18.752Z,100679.90
2023-05-01T00:19:58.590Z,100684.24
2023-05-01T00:22:46.346Z,100681.34
2023-05-01T00:25:23.382Z,100681.88
2023-05-01T00:27:50.713Z,100683.79
2023-05-01T00:30:36.714Z,100686.24
2023-05-01T00:33:24.500Z,100688.89
2023-05-01T00:36:11.787Z,100685.27
2023-05-01T00:38:39.456Z,100688.55
2023-05-01T00:41:08.943Z,100692.53
2023-05-01T00:43:39.646Z,100687.89
2023-05-01T00:46:27.735Z,100686.52
2023-05-01T00:49:15.469Z,100690.83
2023-05-01T00:52:03.458Z,100688.77
2023-05-01T00:54:52.269Z,100691.91
2023-05-01T00:57:39.585Z,100690.04
2023-05-01T01:00:27.387Z,100690.38
2023-05-01T01:03:13.104Z,100689.01
2023-05-01T01:06:06.191Z,100692.33
2023-05-01T01:09:01.258Z,100689.94
2023-05-01T01:11:59.265Z,100689.42
2023-05-01T01:14:54.283Z,100689.09
2023-05-01T01:17:49.883Z,100688.77
2023-05-01T01:20:42.542Z,100690.16
2023-05-01T01:23:44.302Z,100690.67
2023-05-01T01:26:34.553Z,100688.42
2023-05-01T01:29:40.630Z,100691.53
2023-05-01T01:32:51.997Z,100692.22
2023-05-01T01:35:43.718Z,100693.44
2023-05-01T01:38:37.794Z,100695.85
2023-05-01T01:41:31.833Z,100700.34
2023-05-01T01:44:26.882Z,100705.00
2023-05-01T01:47:17.294Z,100702.25
2023-05-01T01:49:56.598Z,100703.13
2023-05-01T01:52:46.629Z,100701.73
2023-05-01T01:55:28.628Z,100703.63
2023-05-01T01:58:12.409Z,100703.13
2023-05-01T02:00:42.133Z,100702.45
2023-05-01T02:03:14.547Z,100702.45
2023-05-01T02:05:44.399Z,100701.92
2023-05-01T02:08:35.519Z,100700.88
2023-05-01T02:11:28.313Z,100701.06
2023-05-01T02:14:17.471Z,100699.70
2023-05-01T02:17:05.746Z,100701.09
2023-05-01T02:19:55.497Z,100699.73
2023-05-01T02:22:46.125Z,100696.64
2023-05-01T02:25:24.867Z,100697.85
2023-05-01T02:28:05.012Z,100696.82
2023-05-01T02:30:47.215Z,100697.70
2023-05-01T02:33:34.857Z,100703.71
2023-05-01T02:36:13.403Z,100698.20
2023-05-01T02:39:00.772Z,100700.62
2023-05-01T02:41:49.151Z,100705.45
2023-05-01T02:44:42.361Z,100702.52
2023-05-01T02:47:33.376Z,100701.50
2023-05-01T02:50:03.189Z,100702.19
2023-05-01T02:52:51.213Z,100699.95
2023-05-01T02:55:44.751Z,100695.81
2023-05-01T02:58:19.580Z,100693.94
2023-05-01T03:00:56.935Z,100694.80
2023-05-01T03:03:37.507Z,100697.23
2023-05-01T03:06:24.766Z,100700.67
2023-05-01T03:09:12.849Z,100701.72
2023-05-01T03:12:19.098Z,100700.84
2023-05-01T03:15:07.086Z,100700.50
2023-05-01T03:18:42.061Z,100700.85
2023-05-01T03:21:01.563Z,100699.98
2023-05-01T03:23:49.440Z,100698.42
2023-05-01T03:26:36.709Z,100699.11
2023-05-01T03:29:15.221Z,100696.85
2023-05-01T03:31:57.671Z,100696.33
2023-05-01T03:34:35.444Z,100696.15
2023-05-01T03:37:04.805Z,100692.69
2023-05-01T03:39:43.470Z,100690.27
2023-05-01T03:42:30.125Z,100685.80
2023-05-01T03:45:01.589Z,100687.86
2023-05-01T03:47:31.779Z,100690.09
2023-05-01T03:50:17.929Z,100688.67
2023-05-01T03:53:05.425Z,100693.67
2023-05-01T03:55:53.048Z,100696.75
2023-05-01T03:58:32.888Z,100694.69
2023-05-01T04:01:13.738Z,100696.91
2023-05-01T04:03:54.357Z,100699.13
2023-05-01T04:06:33.497Z,100698.59
2023-05-01T04:09:11.126Z,100695.64
2023-05-01T04:12:02.396Z,100699.22
2023-05-01T04:14:38.964Z,100705.91
2023-05-01T04:17:19.297Z,100705.56
2023-05-01T04:20:08.079Z,100700.33
2023-05-01T04:22:48.468Z,100699.92
2023-05-01T04:26:12.600Z,100700.02
2023-05-01T04:28:34.115Z,100698.89
2023-05-01T04:31:14.381Z,100695.16
2023-05-01T04:34:01.679Z,100697.98
2023-05-01T04:36:37.380Z,100696.64
2023-05-01T04:39:24.679Z,100695.30
2023-05-01T04:41:55.218Z,100692.92
2023-05-01T04:44:43.125Z,100699.98
2023-05-01T04:47:30.598Z,100694.51
2023-05-01T04:50:10.066Z,100693.61
2023-05-01T04:52:39.489Z,100694.13
2023-05-01T04:55:07.687Z,100684.67
2023-05-01T04:57:37.086Z,100678.36
2023-05-01T05:00:08.026Z,100671.04
2023-05-01T05:02:40.584Z,100665.88
2023-05-01T05:05:08.734Z,100656.59
2023-05-01T05:07:41.302Z,100648.50
2023-05-01T05:10:26.638Z,100642.34
2023-05-01T05:13:07.372Z,100636.08
2023-05-01T05:15:34.646Z,100635.34
2023-05-01T05:18:02.526Z,100632.52
2023-05-01T05:20:30.263Z,100628.06
2023-05-01T05:22:57.701Z,100621.84
2023-05-01T05:25:30.168Z,100628.86
2023-05-01T05:27:58.172Z,100622.95
2023-05-01T05:30:26.316Z,100620.45
2023-05-01T05:32:55.424Z,100612.64
2023-05-01T05:35:23.150Z,100616.64
2023-05-01T05:37:52.629Z,100614.42
2023-05-01T05:40:19.850Z,100615.38
2023-05-01T05:42:55.355Z,100614.89
2023-05-01T05:45:27.558Z,100613.63
2023-05-01T05:47:58.641Z,100610.98
2023-05-01T05:50:25.997Z,100613.38
2023-05-01T05:52:52.912Z,100613.02
2023-05-01T05:55:20.507Z,100618.92
2023-05-01T05:57:59.549Z,100615.77
2023-05-01T06:00:26.729Z,100618.27
2023-05-01T06:02:54.574Z,100619.06
2023-05-01T06:05:22.162Z,100616.52
2023-05-01T06:07:49.398Z,100619.96
2023-05-01T06:10:17.119Z,100621.27
2023-05-01T06:12:47.503Z,100621.80
2023-05-01T06:15:29.839Z,100625.27
2023-05-01T06:17:57.574Z,100626.34
2023-05-01T06:20:24.441Z,100623.24
2023-05-01T06:22:52.021Z,100621.73
2023-05-01T06:25:25.258Z,100620.42
2023-05-01T06:27:52.243Z,100625.25
2023-05-01T06:30:22.057Z,100629.01
2023-05-01T06:32:49.376Z,100628.60
2023-05-01T06:35:19.240Z,100631.59
2023-05-01T06:37:50.622Z,100631.94
2023-05-01T06:40:38.397Z,100630.17
2023-05-01T06:43:05.686Z,100628.98
2023-05-01T06:45:32.701Z,100631.58
2023-05-01T06:47:59.800Z,100630.93
2023-05-01T06:50:26.695Z,100626.23
2023-05-01T06:52:53.551Z,100623.06
2023-05-01T06:55:20.797Z,100622.44
2023-05-01T06:58:12.717Z,100627.60
2023-05-01T07:00:49.695Z,100621.29
2023-05-01T07:03:18.031Z,100624.77
2023-05-01T07:05:53.305Z,100618.48
2023-05-01T07:08:21.419Z,100616.98
2023-05-01T07:10:49.782Z,100619.55
2023-05-01T07:13:17.166Z,100621.54
2023-05-01T07:15:44.384Z,100619.05
2023-05-01T07:18:12.756Z,100618.27
2023-05-01T07:20:40.456Z,100614.69
2023-05-01T07:23:07.819Z,100612.29
2023-05-01T07:25:34.736Z,100613.56
2023-05-01T07:28:04.762Z,100618.41
2023-05-01T07:30:33.235Z,100619.13
2023-05-01T07:33:00.181Z,100616.63
2023-05-01T07:35:27.603Z,100619.48
2023-05-01T07:37:55.172Z,100625.00
2023-05-01T07:40:22.409Z,100620.23
2023-05-01T07:42:50.084Z,100620.21
2023-05-01T07:45:18.003Z,100617.34
2023-05-01T07:47:44.883Z,100619.36
2023-05-01T07:50:14.492Z,100616.77
2023-05-01T07:52:41.993Z,100614.02
2023-05-01T07:55:10.836Z,100616.84
2023-05-01T07:57:38.825Z,100627.77
2023-05-01T08:00:06.995Z,100624.81
2023-05-01T08:02:41.283Z,100619.05
2023-05-01T08:05:09.384Z,100616.48
2023-05-01T08:07:36.175Z,100616.03
2023-05-01T08:10:03.313Z,100619.63
2023-05-01T08:12:31.538Z,100624.51
2023-05-01T08:14:58.610Z,100627.93
2023-05-01T08:17:27.574Z,100622.91
2023-05-01T08:19:57.163Z,100624.34
2023-05-01T08:22:27.378Z,100623.55
2023-05-01T08:24:56.938Z,100622.56
2023-05-01T08:27:24.028Z,100617.65
2023-05-01T08:29:53.061Z,100625.12
2023-05-01T08:32:22.824Z,100619.70
2023-05-01T08:34:49.757Z,100625.07
2023-05-01T08:37:19.189Z,100629.77
2023-05-01T08:39:46.779Z,100619.40
2023-05-01T08:42:14.406Z,100614.61
2023-05-01T08:44:42.314Z,100615.77
2023-05-01T08:47:17.979Z,100613.69
2023-05-01T08:49:46.008Z,100615.75
2023-05-01T08:52:14.509Z,100628.14
2023-05-01T08:54:43.815Z,100620.60
2023-05-01T08:57:13.213Z,100617.67
2023-05-01T08:59:41.277Z,100620.05
2023-05-01T09:02:10.001Z,100622.20
2023-05-01T09:04:38.921Z,100617.00
2023-05-01T09:07:06.648Z,100618.59
2023-05-01T09:09:34.712Z,100613.18
2023-05-01T09:12:07.373Z,100616.27
2023-05-01T09:14:34.667Z,100608.79
2023-05-01T09:17:02.156Z,100611.39
2023-05-01T09:19:30.032Z,100606.79
2023-05-01T09:21:57.693Z,100612.21
2023-05-01T09:24:26.495Z,100610.33
2023-05-01T09:26:53.748Z,100598.98
2023-05-01T09:29:40.317Z,100598.70
2023-05-01T09:32:17.928Z,100592.77
2023-05-01T09:34:45.949Z,100596.55
2023-05-01T09:37:14.798Z,100589.30
2023-05-01T09:39:41.836Z,100583.85
2023-05-01T09:42:09.884Z,100591.70
2023-05-01T09:44:45.262Z,100588.78
2023-05-01T09:47:14.034Z,100591.33
2023-05-01T09:49:48.877Z,100580.34
2023-05-01T09:52:16.885Z,100577.74
2023-05-01T09:54:44.543Z,100577.07
2023-05-01T09:57:11.640Z,100574.42
2023-05-01T09:59:39.260Z,100576.26
2023-05-01T10:02:06.699Z,100572.39
2023-05-01T10:04:41.777Z,100573.77
2023-05-01T10:07:17.552Z,100569.12
2023-05-01T10:09:44.529Z,100566.45
2023-05-01T10:12:11.595Z,100561.23
2023-05-01T10:14:53.014Z,100561.55
2023-05-01T10:17:23.357Z,100555.15
2023-05-01T10:19:51.494Z,100555.02
2023-05-01T10:22:18.652Z,100556.26
2023-05-01T10:24:46.369Z,100551.41
2023-05-01T10:27:14.480Z,100547.27
2023-05-01T10:29:43.330Z,100545.30
2023-05-01T10:32:10.889Z,100546.90
2023-05-01T10:34:41.439Z,100543.36
2023-05-01T10:37:14.457Z,100548.94
2023-05-01T10:39:41.676Z,100544.98
2023-05-01T10:42:11.745Z,100538.55
2023-05-01T10:44:38.984Z,100531.39
2023-05-01T10:47:38.081Z,100537.78
2023-05-01T10:50:09.955Z,100537.02
2023-05-01T10:53:20.007Z,100534.60
2023-05-01T10:55:47.821Z,100529.52
2023-05-01T10:58:16.031Z,100524.48
2023-05-01T11:00:43.160Z,100524.11
2023-05-01T11:03:40.418Z,100521.33
2023-05-01T11:06:11.515Z,100518.50
2023-05-01T11:08:40.209Z,100518.62
2023-05-01T11:11:42.714Z,100517.61
2023-05-01T11:14:11.096Z,100515.79
2023-05-01T11:16:50.507Z,100510.84
2023-05-01T11:19:50.557Z,100514.79
2023-05-01T11:22:18.681Z,100516.75
2023-05-01T11:24:46.056Z,100503.76
2023-05-01T11:27:16.953Z,100502.86
2023-05-01T11:29:48.686Z,100496.25
2023-05-01T11:32:21.115Z,100493.66
2023-05-01T11:34:51.501Z,100494.41
2023-05-01T11:37:19.071Z,100494.95
2023-05-01T11:39:52.655Z,100487.63
2023-05-01T11:42:23.661Z,100487.45
2023-05-01T11:45:08.144Z,100485.63
2023-05-01T11:47:37.173Z,100480.77
2023-05-01T11:50:04.547Z,100488.16
2023-05-01T11:52:42.541Z,100476.12
2023-05-01T11:55:11.182Z,100480.47
2023-05-01T11:57:49.628Z,100481.44
2023-05-01T12:00:29.844Z,100470.79
2023-05-01T12:03:02.205Z,100469.15
2023-05-01T12:05:43.832Z,100470.02
2023-05-01T12:08:18.655Z,100468.38
2023-05-01T12:10:47.045Z,100466.18
2023-05-01T12:13:15.510Z,100460.52
2023-05-01T12:15:43.893Z,100465.89
2023-05-01T12:18:12.382Z,100453.67
2023-05-01T12:20:41.448Z,100456.77
2023-05-01T12:23:10.661Z,100447.30
2023-05-01T12:25:39.509Z,100443.02
2023-05-01T12:28:11.715Z,100436.64
2023-05-01T12:30:39.181Z,100441.75
2023-05-01T12:33:13.259Z,100436.83
2023-05-01T12:35:41.043Z,100435.02
2023-05-01T12:38:15.413Z,100428.17
2023-05-01T12:40:51.431Z,100427.17
2023-05-01T12:43:19.348Z,100427.24
2023-05-01T12:45:57.864Z,100437.76
2023-05-01T12:48:26.088Z,100431.38
2023-05-01T12:50:54.489Z,100432.64
2023-05-01T12:53:23.369Z,100425.14
2023-05-01T12:55:59.532Z,100415.04
2023-05-01T12:58:36.308Z,100415.70
2023-05-01T13:01:04.210Z,100419.23
2023-05-01T13:03:33.483Z,100412.98
2023-05-01T13:06:02.670Z,100405.46
2023-05-01T13:08:51.537Z,100397.19
2023-05-01T13:11:19.450Z,100406.33
2023-05-01T13:13:49.072Z,100401.54
2023-05-01T13:16:35.890Z,100397.17
2023-05-01T13:19:29.703Z,100385.70
2023-05-01T13:22:06.896Z,100387.56
2023-05-01T13:24:44.746Z,100388.91
2023-05-01T13:27:32.641Z,100380.23
2023-05-01T13:30:03.059Z,100386.70
2023-05-01T13:32:42.522Z,100382.57
2023-05-01T13:35:13.340Z,100383.20
2023-05-01T13:37:41.308Z,100375.86
2023-05-01T13:40:19.677Z,100377.61
2023-05-01T13:42:57.183Z,100370.96
2023-05-01T13:45:25.092Z,100364.52
2023-05-01T13:47:53.122Z,100365.93
2023-05-01T13:50:22.568Z,100367.80
2023-05-01T13:52:53.443Z,100366.24
2023-05-01T13:55:23.238Z,100361.30
2023-05-01T13:57:50.964Z,100356.17
2023-05-01T14:00:39.902Z,100351.77
2023-05-01T14:03:19.008Z,100345.20
2023-05-01T14:05:46.362Z,100344.80
2023-05-01T14:08:15.418Z,100345.59
2023-05-01T14:11:05.596Z,100343.36
2023-05-01T14:13:33.679Z,100345.85
2023-05-01T14:16:00.800Z,100341.56
2023-05-01T14:18:49.472Z,100335.27
2023-05-01T14:21:18.748Z,100328.59
2023-05-01T14:23:47.137Z,100330.98
2023-05-01T14:26:18.279Z,100331.76
2023-05-01T14:28:46.506Z,100320.79
2023-05-01T14:31:25.010Z,100331.09
2023-05-01T14:33:56.732Z,100323.45
2023-05-01T14:36:24.490Z,100319.79
2023-05-01T14:38:52.289Z,100319.55
2023-05-01T14:41:19.863Z,100313.17
2023-05-01T14:44:07.365Z,100317.21
2023-05-01T14:46:37.328Z,100319.55
2023-05-01T14:49:04.827Z,100310.33
2023-05-01T14:51:33.305Z,100315.02
2023-05-01T14:54:00.695Z,100314.70
2023-05-01T14:56:27.744Z,100309.35
2023-05-01T14:58:54.804Z,100316.27
2023-05-01T15:01:22.062Z,100310.22
2023-05-01T15:03:49.210Z,100301.71
2023-05-01T15:06:17.232Z,100295.90
2023-05-01T15:08:44.547Z,100289.41
2023-05-01T15:11:11.656Z,100295.21
2023-05-01T15:13:40.213Z,100299.59
2023-05-01T15:16:28.051Z,100297.33
2023-05-01T15:18:55.571Z,100288.99
2023-05-01T15:21:33.341Z,100280.77
2023-05-01T15:24:00.765Z,100278.48
2023-05-01T15:26:27.835Z,100278.14
2023-05-01T15:28:55.375Z,100274.92
2023-05-01T15:31:22.861Z,100275.02
2023-05-01T15:33:49.749Z,100269.05
2023-05-01T15:36:16.790Z,100266.20
2023-05-01T15:38:44.200Z,100266.38
2023-05-01T15:41:11.129Z,100258.15
2023-05-01T15:43:38.163Z,100258.98
2023-05-01T15:46:06.227Z,100254.65
2023-05-01T15:48:43.446Z,100258.09
2023-05-01T15:51:22.084Z,100263.99
2023-05-01T15:53:49.003Z,100265.19
2023-05-01T15:56:16.016Z,100256.63
2023-05-01T15:58:53.551Z,100255.30
2023-05-01T16:01:23.168Z,100251.68
2023-05-01T16:03:50.934Z,100246.41
2023-05-01T16:06:18.242Z,100258.11
2023-05-01T16:08:45.600Z,100253.83
2023-05-01T16:11:15.627Z,100255.45
2023-05-01T16:13:43.642Z,100243.90
2023-05-01T16:16:12.458Z,100244.23
2023-05-01T16:18:43.029Z,100234.91
2023-05-01T16:21:12.126Z,100235.76
2023-05-01T16:23:40.156Z,100232.45
2023-05-01T16:26:07.862Z,100238.46
2023-05-01T16:28:44.419Z,100233.44
2023-05-01T16:31:26.013Z,100231.93
2023-05-01T16:33:54.643Z,100231.86
2023-05-01T16:36:22.390Z,100225.56
2023-05-01T16:38:49.317Z,100232.91
2023-05-01T16:41:19.957Z,100227.59
2023-05-01T16:43:47.287Z,100224.63
2023-05-01T16:46:16.665Z,100217.42
2023-05-01T16:48:43.758Z,100215.29
2023-05-01T16:51:22.998Z,100212.42
2023-05-01T16:53:52.636Z,100217.81
2023-05-01T16:56:23.363Z,100222.52
2023-05-01T16:59:11.356Z,100216.38
2023-05-01T17:01:38.644Z,100212.21
2023-05-01T17:04:06.281Z,100217.90
2023-05-01T17:06:56.043Z,100220.30
2023-05-01T17:09:23.310Z,100215.11
2023-05-01T17:11:59.248Z,100216.96
2023-05-01T17:14:28.850Z,100216.80
2023-05-01T17:16:56.027Z,100218.75
2023-05-01T17:19:23.433Z,100214.73
2023-05-01T17:21:50.304Z,100212.59
2023-05-01T17:24:17.262Z,100210.48
2023-05-01T17:26:44.579Z,100207.29
2023-05-01T17:29:11.683Z,100205.17
2023-05-01T17:31:38.866Z,100201.53
2023-05-01T17:34:26.581Z,100200.50
2023-05-01T17:37:15.435Z,100204.91
2023-05-01T17:39:43.253Z,100205.90
2023-05-01T17:42:19.232Z,100210.27
2023-05-01T17:44:49.888Z,100212.06
2023-05-01T17:47:29.704Z,100210.90
2023-05-01T17:49:57.655Z,100209.30
2023-05-01T17:52:34.375Z,100208.55
2023-05-01T17:55:07.739Z,100208.66
2023-05-01T17:57:55.719Z,100212.10
2023-05-01T18:00:41.315Z,100215.40
2023-05-01T18:03:19.639Z,100219.08
2023-05-01T18:05:47.219Z,100217.30
2023-05-01T18:08:14.398Z,100215.96
2023-05-01T18:10:41.552Z,100216.60
2023-05-01T18:13:11.363Z,100218.45
2023-05-01T18:15:49.380Z,100217.70
2023-05-01T18:18:38.019Z,100211.60
2023-05-01T18:21:23.604Z,100215.80
2023-05-01T18:24:10.856Z,100213.49
2023-05-01T18:26:59.603Z,100216.04
2023-05-01T18:29:26.543Z,100214.69
2023-05-01T18:32:14.267Z,100220.65
2023-05-01T18:35:02.743Z,100215.84
2023-05-01T18:37:50.918Z,100215.36
2023-05-01T18:40:18.414Z,100211.49
2023-05-01T18:43:05.775Z,100211.67
2023-05-01T18:45:52.094Z,100216.56
2023-05-01T18:48:39.790Z,100216.49
2023-05-01T18:51:09.234Z,100218.21
2023-05-01T18:53:36.683Z,100215.17
2023-05-01T18:56:24.401Z,100217.10
2023-05-01T18:59:02.403Z,100214.63
2023-05-01T19:01:29.957Z,100216.70
2023-05-01T19:04:00.118Z,100210.19
2023-05-01T19:06:39.035Z,100211.56
2023-05-01T19:09:06.437Z,100208.70
2023-05-01T19:11:42.597Z,100209.02
2023-05-01T19:14:30.029Z,100199.13
2023-05-01T19:17:09.494Z,100198.17
2023-05-01T19:19:39.520Z,100196.30
2023-05-01T19:22:11.461Z,100198.02
2023-05-01T19:24:41.997Z,100189.03
2023-05-01T19:27:09.340Z,100187.09
2023-05-01T19:29:55.718Z,100184.43
2023-05-01T19:32:26.093Z,100191.27
2023-05-01T19:35:12.744Z,100190.92
2023-05-01T19:37:42.879Z,100197.95
2023-05-01T19:40:12.118Z,100192.34
2023-05-01T19:42:39.770Z,100193.41
2023-05-01T19:45:08.057Z,100186.55
2023-05-01T19:47:35.254Z,100185.45
2023-05-01T19:50:03.105Z,100187.92
2023-05-01T19:52:30.414Z,100184.75
2023-05-01T19:54:58.357Z,100181.80
2023-05-01T19:57:26.201Z,100180.41
2023-05-01T20:00:04.209Z,100183.23
2023-05-01T20:02:39.578Z,100181.98
2023-05-01T20:05:14.671Z,100181.77
2023-05-01T20:07:45.502Z,100176.52
2023-05-01T20:10:32.804Z,100177.70
2023-05-01T20:13:18.860Z,100180.35
2023-05-01T20:15:45.917Z,100178.95
2023-05-01T20:18:16.962Z,100183.14
2023-05-01T20:20:44.406Z,100179.52
2023-05-01T20:23:30.099Z,100180.23
2023-05-01T20:26:19.134Z,100177.35
2023-05-01T20:28:49.416Z,100172.34
2023-05-01T20:31:37.666Z,100175.73
2023-05-01T20:34:13.996Z,100174.80
2023-05-01T20:37:01.538Z,100171.75
2023-05-01T20:39:28.602Z,100173.17
2023-05-01T20:42:16.114Z,100175.91
2023-05-01T20:44:45.838Z,100179.61
2023-05-01T20:47:25.703Z,100169.53
2023-05-01T20:49:52.802Z,100170.48
2023-05-01T20:52:40.574Z,100170.08
2023-05-01T20:55:16.794Z,100176.20
2023-05-01T20:58:04.835Z,100176.80
2023-05-01T21:00:40.591Z,100174.77
2023-05-01T21:03:18.820Z,100184.14
2023-05-01T21:05:53.550Z,100184.33
2023-05-01T21:08:41.160Z,100190.08
2023-05-01T21:11:19.271Z,100185.70
2023-05-01T21:14:06.588Z,100188.84
2023-05-01T21:16:53.948Z,100190.88
2023-05-01T21:19:43.357Z,100190.84
2023-05-01T21:22:16.901Z,100191.52
2023-05-01T21:24:46.067Z,100205.03
2023-05-01T21:27:15.984Z,100195.39
2023-05-01T21:29:57.349Z,100190.89
2023-05-01T21:32:45.442Z,100189.77
2023-05-01T21:35:22.745Z,100194.54
2023-05-01T21:38:11.197Z,100190.81
2023-05-01T21:40:42.446Z,100190.38
2023-05-01T21:43:12.317Z,100184.19
2023-05-01T21:46:01.281Z,100183.80
2023-05-01T21:48:37.400Z,100185.48
2023-05-01T21:51:07.924Z,100185.25
2023-05-01T21:53:55.514Z,100181.39
2023-05-01T21:56:32.115Z,100181.00
2023-05-01T21:59:06.088Z,100180.45
2023-05-01T22:01:53.818Z,100175.04
2023-05-01T22:04:41.467Z,100176.41
2023-05-01T22:07:29.382Z,100176.80
2023-05-01T22:10:02.378Z,100171.20
2023-05-01T22:12:49.005Z,100168.56
2023-05-01T22:15:36.325Z,100165.68
2023-05-01T22:18:14.591Z,100160.82
2023-05-01T22:21:03.550Z,100153.00
2023-05-01T22:23:30.938Z,100158.34
2023-05-01T22:26:10.882Z,100159.39
2023-05-01T22:28:41.212Z,100158.84
2023-05-01T22:31:21.322Z,100157.97
2023-05-01T22:34:09.176Z,100161.44
2023-05-01T22:36:49.052Z,100154.33
2023-05-01T22:39:30.061Z,100154.12
2023-05-01T22:42:17.114Z,100156.53
2023-05-01T22:44:44.135Z,100155.29
2023-05-01T22:47:14.063Z,100153.34
2023-05-01T22:50:02.049Z,100151.40
2023-05-01T22:52:40.655Z,100147.20
2023-05-01T22:55:11.288Z,100148.70
2023-05-01T22:57:58.508Z,100146.59
2023-05-01T23:00:29.342Z,100148.09
2023-05-01T23:03:05.744Z,100148.06
2023-05-01T23:05:44.200Z,100141.52
2023-05-01T23:08:11.348Z,100140.09
2023-05-01T23:10:48.978Z,100134.85
2023-05-01T23:13:37.318Z,100135.69
2023-05-01T23:16:25.000Z,100126.96
2023-05-01T23:19:21.958Z,100128.52
2023-05-01T23:22:11.011Z,100123.88
2023-05-01T23:24:58.322Z,100125.90
2023-05-01T23:27:50.165Z,100127.73
2023-05-01T23:30:38.154Z,100127.35
2023-05-01T23:33:20.177Z,100124.36
2023-05-01T23:36:12.399Z,100117.54
2023-05-01T23:38:50.828Z,100113.50
2023-05-01T23:41:38.028Z,100114.69
2023-05-01T23:44:09.737Z,100118.61
2023-05-01T23:46:36.908Z,100111.64
2023-05-01T23:49:03.990Z,100110.35
2023-05-01T23:51:31.666Z,100110.61
2023-05-01T23:53:59.206Z,100112.45
2023-05-01T23:56:26.510Z,100107.70
2023-05-01T23:58:53.842Z,100107.63
